Time;durP1;ratioP1;P1;durP2;ratioP2;P2;SDS_P1;SDS_P2;PMS_P1;PMS_P2;Temp;Humidity;BMP_temperature;BMP_pressure;BME280_temperature;BME280_humidity;BME280_pressure;Samples;Min_cycle;Max_cycle;Signal;HPM_P1;HPM_P2
2021/04/28 00:00:56;;;;;;;14.80;5.20;;;2.30;84.50;;;;;;5052458;28;20199;-87
2021/04/28 00:03:22;;;;;;;8.23;4.97;;;2.30;84.40;;;;;;5051361;28;20173;-87
2021/04/28 00:05:48;;;;;;;11.73;4.87;;;2.30;84.40;;;;;;5051142;28;20218;-87
2021/04/28 00:08:13;;;;;;;10.60;4.87;;;2.30;84.30;;;;;;5052480;28;20204;-87
2021/04/28 00:10:40;;;;;;;16.73;5.50;;;2.30;84.20;;;;;;5052461;28;20186;-87
2021/04/28 00:13:08;;;;;;;11.10;4.80;;;2.30;84.30;;;;;;5051200;28;20181;-87
2021/04/28 00:15:36;;;;;;;7.10;4.83;;;2.30;84.40;;;;;;5053331;28;20566;-87
2021/04/28 00:18:02;;;;;;;14.07;5.13;;;2.30;84.20;;;;;;5056095;28;20178;-87
2021/04/28 00:20:28;;;;;;;6.93;4.83;;;2.30;84.10;;;;;;5054645;28;20176;-87
2021/04/28 00:22:54;;;;;;;8.20;4.40;;;2.40;84.10;;;;;;5055916;28;20590;-87
2021/04/28 00:25:22;;;;;;;10.70;4.87;;;2.40;83.70;;;;;;5054585;28;20190;-87
2021/04/28 00:27:49;;;;;;;14.03;4.37;;;2.40;83.40;;;;;;5054584;28;20181;-87
2021/04/28 00:30:17;;;;;;;10.43;5.07;;;2.40;83.30;;;;;;5055869;28;20188;-87
2021/04/28 00:32:43;;;;;;;12.87;4.70;;;2.40;83.10;;;;;;5055823;28;20202;-87
2021/04/28 00:35:12;;;;;;;4.70;4.20;;;2.40;83.30;;;;;;5055688;28;20671;-87
2021/04/28 00:37:38;;;;;;;14.10;5.20;;;2.40;83.30;;;;;;5055708;28;20175;-87
2021/04/28 00:40:09;;;;;;;18.90;5.50;;;2.40;83.40;;;;;;5054514;28;20169;-87
2021/04/28 00:42:35;;;;;;;7.53;4.53;;;2.30;83.50;;;;;;5054322;28;20206;-87
2021/04/28 00:45:02;;;;;;;11.00;4.70;;;2.30;83.70;;;;;;5054171;28;20200;-87
2021/04/28 00:47:28;;;;;;;10.87;4.37;;;2.30;83.60;;;;;;5054282;28;20522;-87
2021/04/28 00:49:54;;;;;;;14.13;4.70;;;2.30;83.50;;;;;;5055456;28;20175;-87
2021/04/28 00:52:21;;;;;;;14.77;4.93;;;2.40;83.30;;;;;;5055417;28;20642;-87
2021/04/28 00:54:47;;;;;;;18.10;4.30;;;2.30;83.40;;;;;;5054016;28;20241;-87
2021/04/28 00:57:13;;;;;;;9.73;4.27;;;2.30;83.30;;;;;;5055327;28;20258;-87
2021/04/28 00:59:39;;;;;;;8.50;4.93;;;2.40;83.30;;;;;;5054353;28;20267;-87
2021/04/28 01:02:05;;;;;;;12.23;4.97;;;2.30;83.70;;;;;;5053883;28;20203;-87
2021/04/28 01:04:30;;;;;;;11.13;4.80;;;2.30;83.80;;;;;;5053918;28;20521;-87
2021/04/28 01:06:57;;;;;;;10.63;4.33;;;2.30;84.00;;;;;;5055247;28;20602;-87
2021/04/28 01:09:23;;;;;;;10.67;4.47;;;2.30;83.80;;;;;;5055116;28;20625;-87
2021/04/28 01:11:49;;;;;;;12.00;4.67;;;2.30;83.70;;;;;;5053907;28;20216;-87
2021/04/28 01:14:15;;;;;;;15.57;4.17;;;2.30;83.50;;;;;;5054067;28;20175;-87
2021/04/28 01:16:41;;;;;;;8.30;4.60;;;2.30;83.50;;;;;;5053677;28;20234;-87
2021/04/28 01:19:07;;;;;;;12.13;4.13;;;2.30;83.30;;;;;;5053565;28;20176;-87
2021/04/28 01:21:33;;;;;;;13.87;4.80;;;2.20;83.60;;;;;;5053540;28;20253;-87
2021/04/28 01:23:58;;;;;;;6.60;4.13;;;2.20;83.50;;;;;;5053664;28;20183;-87
2021/04/28 01:26:28;;;;;;;8.10;3.87;;;2.10;83.50;;;;;;5054603;28;20192;-87
2021/04/28 01:28:57;;;;;;;14.73;4.50;;;2.10;83.30;;;;;;5053956;28;20164;-87
2021/04/28 01:31:25;;;;;;;11.63;4.40;;;2.10;83.30;;;;;;5053720;28;20176;-87
2021/04/28 01:33:57;;;;;;;9.17;4.03;;;2.00;83.30;;;;;;5053406;28;20176;-87
2021/04/28 01:36:25;;;;;;;11.17;4.20;;;2.10;82.90;;;;;;5054581;28;20558;-87
2021/04/28 01:38:54;;;;;;;11.93;5.03;;;2.10;82.80;;;;;;5053310;28;20182;-87
2021/04/28 01:41:21;;;;;;;7.67;4.50;;;2.10;83.40;;;;;;5053153;28;20295;-87
2021/04/28 01:43:47;;;;;;;11.23;4.10;;;2.10;83.50;;;;;;5054506;28;20641;-87
2021/04/28 01:46:13;;;;;;;10.33;4.17;;;2.10;83.30;;;;;;5054712;28;20188;-87
2021/04/28 01:48:41;;;;;;;6.57;4.00;;;2.10;83.10;;;;;;5054371;28;20194;-88
2021/04/28 01:51:08;;;;;;;7.90;4.40;;;2.10;82.00;;;;;;5054276;28;20178;-87
2021/04/28 01:53:36;;;;;;;15.80;4.57;;;2.10;81.70;;;;;;5053011;28;20180;-87
2021/04/28 01:56:02;;;;;;;16.53;4.10;;;2.10;82.30;;;;;;5054261;28;20700;-87
2021/04/28 01:58:28;;;;;;;10.40;4.47;;;2.10;82.70;;;;;;5052901;28;20270;-87
2021/04/28 02:00:54;;;;;;;12.53;4.47;;;2.00;82.90;;;;;;5052817;28;20288;-87
2021/04/28 02:03:24;;;;;;;5.43;3.37;;;2.10;82.70;;;;;;5054075;28;20199;-87
2021/04/28 02:05:51;;;;;;;8.37;4.40;;;2.00;82.80;;;;;;5052606;28;20218;-87
2021/04/28 02:08:18;;;;;;;10.40;4.07;;;2.10;82.70;;;;;;5053996;28;20176;-87
2021/04/28 02:10:44;;;;;;;7.83;3.77;;;2.00;82.60;;;;;;5053924;28;20173;-87
2021/04/28 02:13:21;;;;;;;9.27;4.33;;;2.00;82.60;;;;;;5052883;28;20179;-87
2021/04/28 02:15:49;;;;;;;23.60;5.80;;;2.00;82.90;;;;;;5053899;28;20245;-87
2021/04/28 02:18:16;;;;;;;8.87;3.80;;;1.90;83.60;;;;;;5053839;28;20172;-87
2021/04/28 02:20:43;;;;;;;11.43;4.60;;;1.80;83.80;;;;;;5052743;28;20200;-88
2021/04/28 02:23:09;;;;;;;7.03;3.90;;;1.90;83.60;;;;;;5052480;28;20173;-87
2021/04/28 02:25:35;;;;;;;20.63;4.20;;;1.90;83.30;;;;;;5052377;28;20197;-87
2021/04/28 02:28:01;;;;;;;17.90;4.27;;;2.00;83.00;;;;;;5052355;28;20633;-87
2021/04/28 02:30:31;;;;;;;9.70;4.17;;;2.10;82.80;;;;;;5052324;28;20672;-87
2021/04/28 02:32:57;;;;;;;15.63;4.57;;;2.10;82.60;;;;;;5052280;28;20635;-87
2021/04/28 02:35:26;;;;;;;7.17;3.60;;;2.10;82.50;;;;;;5053456;28;20242;-87
2021/04/28 02:38:26;;;;;;;6.57;3.80;;;2.10;82.80;;;;;;5053564;28;20634;-87
2021/04/28 02:40:53;;;;;;;6.43;3.77;;;2.10;82.60;;;;;;5045687;28;20259;-87
2021/04/28 02:43:20;;;;;;;12.60;4.73;;;2.10;82.50;;;;;;5053376;28;20249;-87
2021/04/28 02:45:49;;;;;;;9.57;3.63;;;2.10;82.60;;;;;;5052007;28;20196;-87
2021/04/28 02:48:16;;;;;;;8.20;4.10;;;2.10;82.70;;;;;;5052405;28;20199;-87
2021/04/28 02:50:42;;;;;;;16.07;4.33;;;2.00;83.30;;;;;;5053294;28;20176;-87
2021/04/28 02:53:12;;;;;;;12.17;3.83;;;1.90;83.40;;;;;;5052267;28;20645;-87
2021/04/28 02:55:38;;;;;;;6.37;3.57;;;1.90;83.20;;;;;;5053159;28;20211;-87
2021/04/28 02:58:05;;;;;;;9.60;3.90;;;1.80;83.10;;;;;;5052202;28;20624;-87
2021/04/28 03:00:31;;;;;;;7.47;4.00;;;1.80;83.30;;;;;;5051752;28;20522;-87
2021/04/28 03:02:57;;;;;;;12.77;3.80;;;1.80;83.30;;;;;;5053110;28;20177;-87
2021/04/28 03:05:24;;;;;;;8.07;4.10;;;1.80;83.60;;;;;;5051725;28;20213;-87
2021/04/28 03:07:51;;;;;;;7.90;4.23;;;1.80;83.60;;;;;;5051824;28;20176;-87
2021/04/28 03:10:18;;;;;;;9.27;4.20;;;1.70;83.60;;;;;;5051801;28;20173;-87
2021/04/28 03:12:45;;;;;;;8.40;3.50;;;1.60;83.30;;;;;;5052997;28;20511;-87
2021/04/28 03:15:14;;;;;;;13.07;3.90;;;1.60;82.90;;;;;;5051639;28;20739;-87
2021/04/28 03:17:41;;;;;;;11.37;4.03;;;1.60;82.80;;;;;;5051663;28;20182;-87
2021/04/28 03:20:08;;;;;;;11.30;3.83;;;1.50;82.60;;;;;;5051640;28;20268;-87
2021/04/28 03:22:37;;;;;;;8.20;4.27;;;1.50;82.60;;;;;;5053076;28;20227;-87
2021/04/28 03:25:07;;;;;;;6.63;3.50;;;1.30;82.90;;;;;;5051662;28;20203;-87
2021/04/28 03:27:33;;;;;;;6.97;4.20;;;1.40;82.70;;;;;;5051638;28;20164;-87
2021/04/28 03:29:59;;;;;;;11.83;7.10;;;1.30;82.90;;;;;;5051667;28;20176;-87
2021/04/28 03:32:24;;;;;;;4.60;3.50;;;1.30;83.10;;;;;;5052806;28;20611;-87
2021/04/28 03:34:50;;;;;;;5.97;3.73;;;1.30;83.20;;;;;;5052725;28;20525;-87
2021/04/28 03:37:16;;;;;;;17.20;4.37;;;1.30;83.20;;;;;;5051606;28;20593;-87
2021/04/28 03:39:42;;;;;;;15.50;3.77;;;1.30;83.20;;;;;;5052741;28;20171;-87
2021/04/28 03:42:07;;;;;;;11.33;3.77;;;1.30;83.40;;;;;;5052723;28;20196;-87
2021/04/28 03:44:33;;;;;;;10.43;4.10;;;1.30;83.60;;;;;;5051515;28;20168;-87
2021/04/28 03:46:59;;;;;;;10.30;3.40;;;1.30;83.30;;;;;;5051392;28;20195;-87
2021/04/28 03:49:25;;;;;;;14.20;4.53;;;1.40;83.40;;;;;;5051568;28;20184;-87
2021/04/28 03:51:51;;;;;;;10.77;3.83;;;1.40;83.00;;;;;;5055464;28;20172;-87
2021/04/28 03:54:18;;;;;;;11.97;3.87;;;1.40;83.10;;;;;;5056591;28;20176;-87
2021/04/28 03:56:45;;;;;;;13.00;4.37;;;1.50;83.00;;;;;;5055209;28;20204;-87
2021/04/28 03:59:11;;;;;;;12.17;4.37;;;1.50;83.00;;;;;;5056796;28;20187;-87
2021/04/28 04:01:40;;;;;;;10.80;4.40;;;1.50;83.20;;;;;;5153952;22;20236;-84
2021/04/28 04:04:07;;;;;;;9.73;3.60;;;1.40;83.30;;;;;;5056500;28;20172;-84
2021/04/28 04:06:33;;;;;;;13.13;3.70;;;1.40;83.20;;;;;;5055107;28;20230;-84
2021/04/28 04:08:59;;;;;;;11.00;3.90;;;1.30;83.40;;;;;;5056735;28;20664;-84
2021/04/28 04:11:25;;;;;;;17.93;4.50;;;1.40;83.60;;;;;;5056433;28;20188;-84
2021/04/28 04:13:51;;;;;;;10.13;4.37;;;1.30;83.50;;;;;;5056447;28;20168;-84
2021/04/28 04:16:17;;;;;;;9.40;3.73;;;1.40;83.50;;;;;;5055001;28;20533;-84
2021/04/28 04:18:43;;;;;;;10.10;4.17;;;1.50;83.20;;;;;;5056501;28;20168;-84
2021/04/28 04:21:08;;;;;;;11.60;4.03;;;1.70;82.80;;;;;;5056222;28;20692;-85
2021/04/28 04:23:34;;;;;;;10.63;4.40;;;1.70;82.40;;;;;;5055925;28;20172;-85
2021/04/28 04:26:00;;;;;;;13.93;4.17;;;1.80;82.10;;;;;;5056089;28;20192;-84
2021/04/28 04:28:25;;;;;;;13.17;5.00;;;1.90;81.90;;;;;;5054870;28;20172;-84
2021/04/28 04:30:52;;;;;;;9.97;3.90;;;1.90;81.80;;;;;;5054781;28;20207;-84
2021/04/28 04:33:18;;;;;;;14.87;4.53;;;2.00;81.50;;;;;;5054666;28;20184;-84
2021/04/28 04:35:45;;;;;;;7.63;4.30;;;2.00;81.10;;;;;;5056137;28;20577;-84
2021/04/28 04:38:16;;;;;;;10.17;3.70;;;2.10;81.20;;;;;;5054666;28;20198;-84
2021/04/28 04:40:42;;;;;;;8.80;4.40;;;2.10;80.90;;;;;;5054490;28;20196;-84
2021/04/28 04:43:07;;;;;;;6.67;4.03;;;2.10;80.70;;;;;;5054630;28;20641;-84
2021/04/28 04:45:36;;;;;;;9.80;4.30;;;2.20;80.80;;;;;;5056250;28;20191;-84
2021/04/28 04:48:03;;;;;;;11.03;4.60;;;2.20;81.10;;;;;;5055669;28;20588;-84
2021/04/28 04:50:29;;;;;;;12.80;4.03;;;2.30;80.70;;;;;;5055593;28;20172;-84
2021/04/28 04:52:55;;;;;;;13.97;3.70;;;2.40;80.20;;;;;;5054133;28;20192;-85
2021/04/28 04:55:22;;;;;;;12.90;4.43;;;2.50;79.90;;;;;;5055413;28;20200;-84
2021/04/28 04:57:48;;;;;;;7.63;4.57;;;2.50;80.40;;;;;;5054077;28;20181;-85
2021/04/28 05:00:15;;;;;;;7.47;4.17;;;2.60;80.00;;;;;;5054122;28;20167;-84
2021/04/28 05:02:40;;;;;;;11.90;4.50;;;2.70;80.00;;;;;;5052633;28;20235;-84
2021/04/28 05:05:07;;;;;;;10.07;4.23;;;2.70;79.00;;;;;;5055657;28;20207;-84
2021/04/28 05:07:33;;;;;;;24.17;6.80;;;2.70;79.60;;;;;;5055644;28;20199;-84
2021/04/28 05:09:58;;;;;;;9.03;4.17;;;2.80;79.70;;;;;;5055635;28;20172;-84
2021/04/28 05:12:24;;;;;;;5.93;3.40;;;2.70;79.60;;;;;;5055275;28;20193;-84
2021/04/28 05:14:50;;;;;;;7.63;4.70;;;2.80;79.30;;;;;;5055053;28;20177;-84
2021/04/28 05:17:16;;;;;;;12.10;4.00;;;2.90;78.80;;;;;;5055133;28;20221;-84
2021/04/28 05:19:41;;;;;;;5.63;4.30;;;2.90;78.90;;;;;;5055300;28;20255;-84
2021/04/28 05:22:07;;;;;;;5.77;4.03;;;3.00;78.70;;;;;;5054941;28;20333;-84
2021/04/28 05:24:33;;;;;;;4.93;4.07;;;3.00;79.30;;;;;;5055008;28;20187;-84
2021/04/28 05:26:58;;;;;;;5.23;4.13;;;3.00;79.20;;;;;;5053728;28;20172;-84
2021/04/28 05:29:24;;;;;;;6.63;4.70;;;3.10;79.10;;;;;;5054962;28;20176;-84
2021/04/28 05:31:49;;;;;;;6.87;4.90;;;3.20;79.30;;;;;;5053580;28;20234;-84
2021/04/28 05:34:15;;;;;;;17.63;5.70;;;3.30;78.90;;;;;;5053680;28;20546;-84
2021/04/28 05:36:41;;;;;;;8.17;4.37;;;3.50;78.40;;;;;;5053500;28;20231;-84
2021/04/28 05:39:07;;;;;;;10.30;5.23;;;3.60;77.90;;;;;;5053427;28;20177;-84
2021/04/28 05:41:32;;;;;;;4.77;3.83;;;3.70;77.90;;;;;;5054639;28;20204;-84
2021/04/28 05:43:58;;;;;;;5.63;4.57;;;3.80;78.50;;;;;;5054898;28;20169;-85
2021/04/28 05:46:24;;;;;;;5.63;4.57;;;3.90;77.50;;;;;;5054603;28;20178;-85
2021/04/28 05:48:50;;;;;;;10.60;4.80;;;4.10;76.50;;;;;;5054851;28;20173;-84
2021/04/28 05:51:16;;;;;;;5.60;4.30;;;4.20;76.20;;;;;;5053180;28;20197;-84
2021/04/28 05:53:42;;;;;;;5.03;4.53;;;4.30;74.80;;;;;;5054401;28;20174;-84
2021/04/28 05:56:08;;;;;;;6.20;4.83;;;4.40;73.80;;;;;;5053151;28;20182;-84
2021/04/28 05:58:34;;;;;;;5.33;4.43;;;4.50;75.00;;;;;;5053022;28;20269;-84
2021/04/28 06:01:01;;;;;;;11.10;4.97;;;4.60;73.10;;;;;;5052817;28;20338;-84
2021/04/28 06:03:27;;;;;;;7.97;4.90;;;4.80;73.40;;;;;;5054197;28;20632;-84
2021/04/28 06:05:52;;;;;;;8.13;4.90;;;4.90;73.70;;;;;;5054137;28;20720;-84
2021/04/28 06:08:18;;;;;;;6.67;4.13;;;5.00;73.30;;;;;;5054070;28;20199;-84
2021/04/28 06:10:43;;;;;;;11.07;5.30;;;5.00;71.70;;;;;;5052717;28;20174;-84
2021/04/28 06:13:12;;;;;;;5.33;4.73;;;5.20;72.20;;;;;;5053660;28;20548;-84
2021/04/28 06:15:38;;;;;;;8.50;5.27;;;5.30;71.50;;;;;;5052677;28;20656;-84
2021/04/28 06:18:08;;;;;;;7.60;4.43;;;5.50;70.90;;;;;;5054214;28;20190;-84
2021/04/28 06:20:34;;;;;;;7.20;4.90;;;5.60;69.40;;;;;;5052658;28;20179;-85
2021/04/28 06:23:01;;;;;;;7.97;4.73;;;5.80;70.90;;;;;;5052583;28;20178;-84
2021/04/28 06:25:26;;;;;;;6.43;4.37;;;5.90;69.60;;;;;;5053817;28;20175;-85
2021/04/28 06:27:52;;;;;;;11.63;4.70;;;6.00;67.90;;;;;;5052578;28;20185;-85
2021/04/28 06:30:18;;;;;;;9.30;5.23;;;6.10;65.20;;;;;;5052372;28;20222;-85
2021/04/28 06:32:45;;;;;;;9.20;4.83;;;6.30;66.50;;;;;;5052413;28;20262;-85
2021/04/28 06:35:12;;;;;;;8.17;4.90;;;6.40;65.30;;;;;;5054099;28;20168;-83
2021/04/28 06:37:38;;;;;;;11.90;5.37;;;6.50;66.00;;;;;;5053980;28;20172;-83
2021/04/28 06:40:06;;;;;;;7.53;5.30;;;6.70;65.00;;;;;;5054069;28;20172;-84
2021/04/28 06:42:31;;;;;;;8.03;5.13;;;6.80;64.10;;;;;;5052290;28;20213;-83
2021/04/28 06:44:57;;;;;;;7.43;5.13;;;6.70;64.30;;;;;;5052562;28;20172;-84
2021/04/28 06:47:24;;;;;;;6.63;5.50;;;6.70;62.10;;;;;;5052341;28;20209;-84
2021/04/28 06:49:51;;;;;;;6.27;5.17;;;6.70;63.10;;;;;;5052589;28;20172;-83
2021/04/28 06:52:17;;;;;;;5.50;4.47;;;6.80;63.10;;;;;;5052418;28;20283;-84
2021/04/28 06:54:43;;;;;;;10.20;5.07;;;6.90;63.80;;;;;;5052003;28;20271;-85
2021/04/28 06:57:08;;;;;;;8.33;5.07;;;7.00;62.00;;;;;;5053239;28;20262;-85
2021/04/28 06:59:34;;;;;;;7.40;5.07;;;7.20;61.40;;;;;;5053572;28;20210;-85
2021/04/28 07:01:59;;;;;;;7.30;4.80;;;7.30;59.30;;;;;;5053218;28;20217;-85
2021/04/28 07:04:25;;;;;;;8.93;4.70;;;7.40;58.10;;;;;;5051862;28;20643;-84
2021/04/28 07:06:51;;;;;;;10.77;4.43;;;7.60;57.90;;;;;;5053320;28;20201;-85
2021/04/28 07:09:17;;;;;;;8.73;4.80;;;7.60;57.60;;;;;;5051765;28;20562;-85
2021/04/28 07:11:42;;;;;;;10.23;4.70;;;7.90;57.50;;;;;;5052933;28;20198;-85
2021/04/28 07:14:08;;;;;;;11.53;5.10;;;8.00;57.20;;;;;;5051646;28;20182;-85
2021/04/28 07:16:34;;;;;;;5.33;4.10;;;8.20;57.50;;;;;;5053149;28;20651;-85
2021/04/28 07:19:01;;;;;;;7.00;4.93;;;8.30;56.50;;;;;;5051686;28;20282;-85
2021/04/28 07:21:27;;;;;;;10.53;5.20;;;8.30;56.80;;;;;;5051504;28;20219;-85
2021/04/28 07:23:53;;;;;;;9.47;4.60;;;8.50;54.40;;;;;;5051613;28;20179;-85
2021/04/28 07:26:18;;;;;;;7.27;4.50;;;8.60;55.80;;;;;;5055055;28;20169;-85
2021/04/28 07:28:49;;;;;;;6.33;4.03;;;8.60;54.00;;;;;;5057128;28;20176;-84
2021/04/28 07:31:16;;;;;;;8.23;4.10;;;8.80;53.60;;;;;;5055686;28;20699;-84
2021/04/28 07:33:41;;;;;;;14.57;4.23;;;8.80;52.70;;;;;;5056925;28;20641;-85
2021/04/28 07:36:07;;;;;;;9.07;4.43;;;9.00;53.60;;;;;;5056878;28;20180;-85
2021/04/28 07:38:33;;;;;;;11.30;4.70;;;9.10;52.70;;;;;;5056891;28;20176;-85
2021/04/28 07:40:59;;;;;;;6.53;4.40;;;9.30;51.90;;;;;;5055370;28;20215;-84
2021/04/28 07:43:26;;;;;;;14.20;4.63;;;9.50;51.00;;;;;;5056595;28;20255;-85
2021/04/28 07:45:51;;;;;;;7.10;4.37;;;9.60;50.50;;;;;;5056787;28;20200;-85
2021/04/28 07:48:17;;;;;;;5.30;3.93;;;9.80;47.80;;;;;;5056827;28;20676;-85
2021/04/28 07:50:44;;;;;;;7.27;4.43;;;10.00;49.30;;;;;;5056984;28;20172;-85
2021/04/28 07:53:10;;;;;;;6.17;4.77;;;10.00;47.60;;;;;;5055334;28;20199;-84
2021/04/28 07:55:37;;;;;;;5.37;3.73;;;10.10;49.80;;;;;;5056465;28;20168;-85
2021/04/28 07:58:04;;;;;;;5.63;4.13;;;10.30;49.40;;;;;;5055064;28;20669;-85
2021/04/28 08:00:30;;;;;;;7.37;4.37;;;10.50;48.00;;;;;;5056286;28;20200;-85
2021/04/28 08:02:56;;;;;;;8.57;4.13;;;10.50;46.90;;;;;;5054877;28;20312;-85
2021/04/28 08:05:22;;;;;;;6.97;4.60;;;10.70;47.20;;;;;;5056335;28;20656;-85
2021/04/28 08:07:49;;;;;;;6.03;4.07;;;10.70;46.50;;;;;;5056388;28;20176;-85
2021/04/28 08:10:14;;;;;;;4.83;4.33;;;10.90;49.10;;;;;;5056146;28;20176;-86
2021/04/28 08:12:40;;;;;;;6.60;4.53;;;11.00;45.00;;;;;;5054974;28;20669;-87
2021/04/28 08:15:08;;;;;;;5.37;3.33;;;11.00;45.60;;;;;;5054773;28;20176;-86
2021/04/28 08:17:34;;;;;;;8.07;4.23;;;11.20;42.50;;;;;;5055997;28;20638;-87
2021/04/28 08:20:00;;;;;;;5.43;3.90;;;11.30;44.60;;;;;;5054700;28;20184;-86
2021/04/28 08:22:27;;;;;;;5.10;4.30;;;11.30;42.20;;;;;;5054528;28;20226;-86
2021/04/28 08:24:53;;;;;;;6.10;3.60;;;11.50;42.70;;;;;;5055952;28;20193;-87
2021/04/28 08:27:20;;;;;;;5.43;4.17;;;11.60;42.80;;;;;;5054584;28;20271;-87
2021/04/28 08:29:45;;;;;;;5.40;3.70;;;11.50;41.10;;;;;;5055844;28;20172;-87
2021/04/28 08:32:11;;;;;;;3.83;2.93;;;11.70;42.40;;;;;;5054365;28;20198;-86
2021/04/28 08:34:37;;;;;;;3.97;3.20;;;11.60;40.50;;;;;;5054763;28;20180;-86
2021/04/28 08:37:03;;;;;;;5.47;4.03;;;11.70;41.70;;;;;;5054066;28;20572;-86
2021/04/28 08:39:28;;;;;;;7.57;4.33;;;11.60;42.20;;;;;;5054473;28;20218;-87
2021/04/28 08:41:54;;;;;;;5.73;3.83;;;11.70;42.10;;;;;;5055436;28;20648;-87
2021/04/28 08:44:20;;;;;;;4.67;3.53;;;12.10;40.30;;;;;;5055498;28;20175;-86
2021/04/28 08:46:46;;;;;;;5.33;3.17;;;12.10;37.70;;;;;;5054230;28;20186;-87
2021/04/28 08:49:12;;;;;;;6.30;3.83;;;12.00;39.20;;;;;;5054109;28;20203;-86
2021/04/28 08:51:38;;;;;;;7.23;4.23;;;12.00;38.80;;;;;;5054069;28;20207;-86
2021/04/28 08:54:05;;;;;;;7.83;4.20;;;11.80;40.20;;;;;;5054062;28;20554;-86
2021/04/28 08:56:31;;;;;;;8.87;4.23;;;12.20;42.20;;;;;;5055229;28;20179;-85
2021/04/28 08:58:58;;;;;;;5.40;3.83;;;12.10;39.40;;;;;;5053981;28;20184;-85
2021/04/28 09:01:34;;;;;;;4.70;3.33;;;12.20;38.70;;;;;;5054911;28;20203;-85
2021/04/28 09:04:09;;;;;;;5.47;3.93;;;12.30;38.40;;;;;;5053894;28;20194;-85
2021/04/28 09:06:36;;;;;;;6.50;4.47;;;12.20;38.00;;;;;;5053837;28;20172;-85
2021/04/28 09:09:08;;;;;;;7.47;4.53;;;12.40;38.70;;;;;;5055132;28;20770;-85
2021/04/28 09:11:48;;;;;;;4.00;3.20;;;12.50;39.70;;;;;;5055431;28;20565;-87
2021/04/28 09:14:24;;;;;;;6.68;4.60;;;12.50;38.80;;;;;;5052883;28;20416;-86
2021/04/28 09:16:55;;;;;;;5.23;4.33;;;12.40;38.40;;;;;;5053714;28;20202;-86
2021/04/28 09:19:29;;;;;;;4.60;3.90;;;12.60;37.20;;;;;;5053530;28;20176;-86
2021/04/28 09:22:00;;;;;;;7.80;4.57;;;13.00;38.30;;;;;;5054653;28;20257;-86
2021/04/28 09:24:31;;;;;;;5.73;3.60;;;12.80;36.60;;;;;;5054787;28;20149;-86
2021/04/28 09:26:58;;;;;;;5.77;4.30;;;12.80;37.70;;;;;;5055027;28;20167;-86
2021/04/28 09:29:29;;;;;;;8.07;4.77;;;12.70;37.50;;;;;;5053757;28;20237;-87
2021/04/28 09:32:07;;;;;;;3.37;3.00;;;12.70;36.80;;;;;;5053379;28;20192;-86
2021/04/28 09:34:40;;;;;;;6.73;4.83;;;13.00;39.10;;;;;;5054714;28;20156;-87
2021/04/28 09:37:08;;;;;;;5.77;4.00;;;13.00;40.40;;;;;;5054586;28;20156;-87
2021/04/28 09:39:47;;;;;;;7.07;3.57;;;13.10;37.00;;;;;;5054043;28;20294;-87
2021/04/28 09:42:16;;;;;;;8.13;4.97;;;13.00;35.70;;;;;;5053031;28;20643;-87
2021/04/28 09:44:48;;;;;;;5.63;4.40;;;13.00;35.80;;;;;;5053154;28;20676;-87
2021/04/28 09:47:22;;;;;;;6.67;4.10;;;13.10;36.20;;;;;;5053123;28;20274;-87
2021/04/28 09:49:53;;;;;;;9.43;4.77;;;13.30;37.60;;;;;;5052221;28;20225;-87
2021/04/28 09:52:34;;;;;;;4.93;3.80;;;13.20;36.20;;;;;;5052880;28;20560;-87
2021/04/28 09:55:06;;;;;;;10.97;5.03;;;13.20;36.90;;;;;;5052953;28;20179;-87
2021/04/28 09:57:39;;;;;;;6.07;4.23;;;13.10;34.70;;;;;;5054234;28;20649;-87
2021/04/28 10:00:19;;;;;;;7.93;4.47;;;13.20;35.00;;;;;;5053207;28;20545;-87
2021/04/28 10:03:00;;;;;;;12.03;5.10;;;13.60;36.50;;;;;;5151961;22;20235;-85
2021/04/28 10:05:31;;;;;;;7.53;4.70;;;13.80;35.30;;;;;;5054467;28;20525;-85
2021/04/28 10:08:20;;;;;;;91.13;10.70;;;13.70;34.00;;;;;;5053014;28;20655;-85
2021/04/28 10:10:47;;;;;;;9.97;5.50;;;13.50;32.00;;;;;;5054274;28;20155;-85
2021/04/28 10:13:14;;;;;;;6.90;5.30;;;13.90;35.40;;;;;;5054641;28;20199;-85
2021/04/28 10:15:41;;;;;;;5.80;4.03;;;13.70;35.20;;;;;;5054636;28;20241;-86
2021/04/28 10:18:09;;;;;;;9.07;4.30;;;14.20;36.90;;;;;;5052956;28;20267;-85
2021/04/28 10:20:36;;;;;;;4.43;3.93;;;13.90;35.30;;;;;;5052652;28;20172;-85
2021/04/28 10:23:07;;;;;;;6.50;4.70;;;13.80;35.10;;;;;;5052708;28;20188;-86
2021/04/28 10:25:34;;;;;;;5.87;3.53;;;14.20;34.50;;;;;;5052585;28;20693;-86
2021/04/28 10:28:01;;;;;;;5.83;4.23;;;14.10;33.40;;;;;;5052910;28;20633;-85
2021/04/28 10:30:27;;;;;;;6.00;3.87;;;14.00;34.80;;;;;;5053945;28;20241;-85
2021/04/28 10:32:54;;;;;;;7.80;4.50;;;14.20;33.90;;;;;;5053677;28;20541;-86
2021/04/28 10:35:22;;;;;;;5.40;4.60;;;14.00;33.00;;;;;;5052988;28;20685;-86
2021/04/28 10:37:51;;;;;;;6.73;4.30;;;14.30;34.30;;;;;;5053983;28;20547;-85
2021/04/28 10:40:22;;;;;;;7.10;3.80;;;14.30;32.40;;;;;;5052643;28;20233;-86
2021/04/28 10:42:49;;;;;;;8.70;4.50;;;14.50;33.50;;;;;;5052125;28;20226;-86
2021/04/28 10:45:23;;;;;;;4.23;3.73;;;14.30;33.20;;;;;;5053386;28;20176;-87
2021/04/28 10:47:54;;;;;;;8.73;4.90;;;14.40;32.20;;;;;;5053432;28;20171;-86
2021/04/28 10:50:35;;;;;;;9.80;4.70;;;14.30;34.90;;;;;;5052030;28;20179;-86
2021/04/28 10:53:21;;;;;;;5.83;3.87;;;14.30;33.60;;;;;;5053386;28;20192;-86
2021/04/28 10:56:07;;;;;;;4.70;4.20;;;14.50;34.00;;;;;;5053411;28;20156;-85
2021/04/28 10:58:35;;;;;;;8.20;4.37;;;14.90;35.70;;;;;;5053708;28;20160;-85
2021/04/28 11:03:30;;;;;;;5.13;3.93;;;14.90;33.60;;;;;;5053176;28;20192;-85
2021/04/28 11:05:59;;;;;;;7.27;4.23;;;14.90;33.10;;;;;;5053135;28;20172;-85
2021/04/28 11:08:31;;;;;;;7.00;4.83;;;14.60;34.20;;;;;;5053228;28;20225;-86
2021/04/28 11:10:57;;;;;;;5.17;4.00;;;15.10;32.40;;;;;;5051952;28;20725;-85
2021/04/28 11:13:26;;;;;;;5.43;4.07;;;15.20;35.90;;;;;;5051809;28;20179;-84
2021/04/28 11:15:52;;;;;;;5.97;4.40;;;14.80;33.10;;;;;;5053212;28;20255;-85
2021/04/28 11:18:37;;;;;;;7.07;4.90;;;15.10;33.60;;;;;;5052580;28;20233;-86
2021/04/28 11:21:12;;;;;;;6.33;4.27;;;15.20;34.40;;;;;;5053042;28;20238;-85
2021/04/28 11:23:58;;;;;;;5.80;4.10;;;15.20;32.30;;;;;;5053370;28;20197;-86
2021/04/28 11:26:29;;;;;;;7.77;4.50;;;14.90;31.60;;;;;;5052846;28;20830;-84
2021/04/28 11:28:56;;;;;;;6.33;4.43;;;15.30;35.30;;;;;;5053597;28;20217;-85
2021/04/28 11:31:37;;;;;;;6.80;4.83;;;15.30;33.90;;;;;;5052668;28;20673;-84
2021/04/28 11:34:16;;;;;;;5.70;4.70;;;15.30;31.60;;;;;;5052184;28;20260;-86
2021/04/28 11:36:49;;;;;;;9.03;5.03;;;15.30;31.10;;;;;;5052069;28;20169;-85
2021/04/28 11:39:42;;;;;;;7.30;4.97;;;15.30;31.90;;;;;;5051885;28;20262;-84
2021/04/28 11:42:17;;;;;;;5.83;4.80;;;15.60;33.70;;;;;;5051758;28;20207;-84
2021/04/28 11:44:57;;;;;;;6.07;4.40;;;15.60;33.30;;;;;;5052920;28;20259;-84
2021/04/28 11:47:27;;;;;;;8.23;4.93;;;15.60;32.70;;;;;;5053746;28;20144;-85
2021/04/28 11:49:55;;;;;;;7.80;5.10;;;15.50;32.90;;;;;;5052133;28;20650;-83
2021/04/28 11:52:22;;;;;;;5.80;5.03;;;15.60;33.50;;;;;;5052158;28;20210;-82
2021/04/28 11:54:59;;;;;;;8.10;5.73;;;16.00;33.70;;;;;;5053106;28;20684;-83
2021/04/28 11:57:32;;;;;;;7.87;5.47;;;15.50;30.90;;;;;;5052986;28;20529;-82
2021/04/28 12:00:11;;;;;;;7.53;5.33;;;15.70;35.60;;;;;;5051515;28;20229;-83
2021/04/28 12:02:38;;;;;;;8.63;5.53;;;15.80;34.90;;;;;;5052772;28;20290;-83
2021/04/28 12:05:05;;;;;;;5.97;4.93;;;16.00;32.70;;;;;;5052884;28;20688;-85
2021/04/28 12:07:32;;;;;;;8.93;6.20;;;16.20;32.90;;;;;;5051622;28;20175;-85
2021/04/28 12:09:58;;;;;;;8.77;6.07;;;16.30;31.90;;;;;;5053593;28;20235;-85
2021/04/28 12:12:33;;;;;;;7.90;5.60;;;16.20;32.00;;;;;;5053530;28;20196;-84
2021/04/28 12:15:05;;;;;;;7.13;6.23;;;16.10;34.60;;;;;;5057438;28;20210;-86
2021/04/28 12:17:34;;;;;;;6.97;5.47;;;16.00;31.50;;;;;;5057439;28;20168;-86
2021/04/28 12:20:00;;;;;;;12.20;6.47;;;16.10;33.80;;;;;;5057391;28;20164;-86
2021/04/28 12:22:27;;;;;;;10.40;6.43;;;16.20;32.90;;;;;;5056406;28;20200;-84
2021/04/28 12:24:57;;;;;;;6.80;5.93;;;16.10;31.90;;;;;;5054940;28;20182;-84
2021/04/28 12:27:24;;;;;;;11.07;6.53;;;16.40;34.90;;;;;;5056125;28;20156;-84
2021/04/28 12:29:54;;;;;;;12.17;7.07;;;16.20;32.80;;;;;;5056004;28;20165;-84
2021/04/28 12:32:25;;;;;;;9.20;6.73;;;16.20;33.00;;;;;;5055843;28;20682;-84
2021/04/28 12:35:05;;;;;;;9.13;6.77;;;16.30;33.40;;;;;;5054670;28;20168;-84
2021/04/28 12:37:31;;;;;;;10.47;7.50;;;16.80;31.60;;;;;;5056150;28;20163;-84
2021/04/28 12:40:01;;;;;;;13.13;7.20;;;16.70;32.40;;;;;;5054883;28;20168;-84
2021/04/28 12:42:32;;;;;;;8.43;6.37;;;16.80;29.70;;;;;;5055658;28;20219;-84
2021/04/28 12:45:02;;;;;;;9.70;6.40;;;17.00;32.80;;;;;;5056038;28;20191;-85
2021/04/28 12:47:31;;;;;;;11.88;6.40;;;16.70;32.90;;;;;;5055887;28;20176;-84
2021/04/28 12:50:12;;;;;;;12.33;7.07;;;16.40;30.20;;;;;;5056199;28;20538;-84
2021/04/28 12:52:42;;;;;;;9.13;6.80;;;16.50;34.90;;;;;;5055558;28;20188;-84
2021/04/28 12:55:23;;;;;;;8.53;6.73;;;17.00;32.20;;;;;;5055232;28;20165;-83
2021/04/28 12:58:01;;;;;;;14.03;6.97;;;16.70;31.30;;;;;;5055507;28;20171;-84